Terminal Aerodrome Forecast
Issued by NWS

Home | Current Version | Previous Version | Text Only | Print | Product List | Glossary On
Versions: 1 2 3 4 5 6 7 8 9 10 11 12 13 14 15 16 17 18
000
FTUS46 KLOX 221200 AAA
TAFSBP
TAF AMD
KSBP 221201Z 2212/2312 VRB03KT P6SM OVC005
     FM221400 VRB03KT P6SM OVC007
     FM221600 VRB03KT P6SM SCT010
     FM222200 29012KT P6SM SKC
     FM230300 31006KT P6SM SKC
     FM230700 VRB03KT P6SM BKN007
     FM231000 VRB03KT 5SM BR OVC005=

USA.gov is the U.S. government's official web portal to all federal, state and local government web resources and services.